Time;durP1;ratioP1;P1;durP2;ratioP2;P2;SDS_P1;SDS_P2;PMS_P1;PMS_P2;Temp;Humidity;BMP_temperature;BMP_pressure;BME280_temperature;BME280_humidity;BME280_pressure;Samples;Min_cycle;Max_cycle;Signal;HPM_P1;HPM_P2
2022/06/07 03:00:32;;;;;;;2.70;0.90;;;23.20;50.20;;;;;;6090465;23;45912;31
2022/06/07 03:02:58;;;;;;;2.25;1.05;;;23.20;50.20;;;;;;4901226;28;45890;-61
2022/06/07 03:05:24;;;;;;;2.03;1.05;;;23.20;50.10;;;;;;4879682;29;46070;-58
2022/06/07 03:07:50;;;;;;;0.98;0.75;;;23.20;50.10;;;;;;4898019;28;45591;-61
2022/06/07 03:10:16;;;;;;;1.17;0.95;;;23.30;50.10;;;;;;4890779;28;45280;-63
2022/06/07 03:12:42;;;;;;;1.40;0.98;;;23.30;50.70;;;;;;4861659;29;45161;-63
2022/06/07 03:15:08;;;;;;;2.65;0.90;;;23.20;50.10;;;;;;4876025;29;45972;-64
2022/06/07 03:17:34;;;;;;;1.15;0.85;;;23.20;50.20;;;;;;4877107;29;45500;-69
2022/06/07 03:20:00;;;;;;;1.60;1.00;;;23.20;50.30;;;;;;4878685;29;45307;-68
2022/06/07 03:22:26;;;;;;;1.38;1.00;;;23.20;50.30;;;;;;4874220;29;46157;-61
2022/06/07 03:24:51;;;;;;;1.98;1.25;;;23.20;50.40;;;;;;4873875;29;46285;-59
2022/06/07 03:27:17;;;;;;;1.55;1.17;;;23.20;50.40;;;;;;4875668;29;45017;-61
2022/06/07 03:29:42;;;;;;;5.53;1.00;;;23.30;50.40;;;;;;4877344;29;45479;-61
2022/06/07 03:32:08;;;;;;;3.67;1.00;;;23.30;51.00;;;;;;4883170;29;45025;-58
2022/06/07 03:34:34;;;;;;;3.28;1.10;;;23.20;50.40;;;;;;4878454;28;46071;-64
2022/06/07 03:37:00;;;;;;;1.88;1.00;;;23.20;50.40;;;;;;4883175;29;45882;-60
2022/06/07 03:39:26;;;;;;;4.15;1.10;;;23.30;50.50;;;;;;4878975;29;45546;-58
2022/06/07 03:41:51;;;;;;;2.38;1.13;;;23.30;50.50;;;;;;4875734;29;44867;-62
2022/06/07 03:44:17;;;;;;;1.23;1.13;;;23.30;50.50;;;;;;4874131;29;45261;-60
2022/06/07 03:46:44;;;;;;;0.90;0.85;;;23.20;50.60;;;;;;4869847;29;45189;-60
2022/06/07 03:49:09;;;;;;;1.27;0.93;;;23.10;50.70;;;;;;4877800;29;45477;-59
2022/06/07 03:51:35;;;;;;;1.83;1.08;;;23.20;50.80;;;;;;4876914;29;46095;-62
2022/06/07 03:54:00;;;;;;;2.90;1.05;;;23.20;50.60;;;;;;4879440;29;45701;-63
2022/06/07 03:56:26;;;;;;;1.33;1.10;;;23.20;50.60;;;;;;4875416;29;45232;-57
2022/06/07 03:58:52;;;;;;;2.55;1.40;;;23.10;50.70;;;;;;4869816;29;44908;-64
2022/06/07 04:01:19;;;;;;;2.13;1.00;;;23.10;50.70;;;;;;4878502;28;45423;-64
2022/06/07 04:03:46;;;;;;;1.75;1.33;;;23.10;50.70;;;;;;4896413;28;46656;-62
2022/06/07 04:06:24;;;;;;;2.80;1.23;;;23.10;50.70;;;;;;4893068;28;45523;-65
2022/06/07 04:08:50;;;;;;;3.03;1.23;;;23.10;50.80;;;;;;4896855;28;45509;-63
2022/06/07 04:11:18;;;;;;;1.98;1.00;;;23.10;50.80;;;;;;4896399;28;45541;-61
2022/06/07 04:13:44;;;;;;;3.35;1.20;;;23.10;50.80;;;;;;4898405;28;46907;-62
2022/06/07 04:16:12;;;;;;;1.60;0.90;;;23.10;50.90;;;;;;4897247;28;45187;-61
2022/06/07 04:18:38;;;;;;;2.03;1.30;;;23.10;50.90;;;;;;4891327;28;45087;-61
2022/06/07 04:21:05;;;;;;;1.73;1.08;;;23.00;50.80;;;;;;4896471;28;45259;-62
2022/06/07 04:23:31;;;;;;;1.38;0.98;;;23.00;50.70;;;;;;4894379;28;47389;-59
2022/06/07 04:25:56;;;;;;;1.08;0.98;;;23.00;50.70;;;;;;4890602;28;44930;-60
2022/06/07 04:28:22;;;;;;;1.13;1.00;;;23.00;50.80;;;;;;4894451;28;44715;-67
2022/06/07 04:30:48;;;;;;;3.45;1.48;;;23.00;50.80;;;;;;4893214;29;45732;-63
2022/06/07 04:33:17;;;;;;;1.50;1.00;;;23.00;50.90;;;;;;4895800;28;46158;-64
2022/06/07 04:35:44;;;;;;;1.20;0.85;;;23.00;50.90;;;;;;4899464;28;44687;-62
2022/06/07 04:38:10;;;;;;;2.10;0.80;;;23.10;50.90;;;;;;4896115;28;45252;-61
2022/06/07 04:40:38;;;;;;;1.33;1.05;;;23.10;50.80;;;;;;4890434;28;45320;-60
2022/06/07 04:43:04;;;;;;;1.38;0.90;;;23.10;50.80;;;;;;4904961;28;46104;-65
2022/06/07 04:45:31;;;;;;;1.52;0.90;;;23.10;50.80;;;;;;4893385;28;45418;-61
2022/06/07 04:47:57;;;;;;;1.45;0.90;;;23.10;50.80;;;;;;4892148;28;45533;-60
2022/06/07 04:50:22;;;;;;;1.23;0.90;;;23.10;50.90;;;;;;4891718;28;44866;-64
2022/06/07 04:52:48;;;;;;;1.00;0.80;;;23.00;50.90;;;;;;4892013;29;46753;-62
2022/06/07 04:55:14;;;;;;;1.80;1.17;;;23.00;51.00;;;;;;4896600;29;45298;-66
2022/06/07 04:57:39;;;;;;;2.03;0.90;;;23.00;51.00;;;;;;4897982;28;45366;-65
2022/06/07 05:00:06;;;;;;;1.27;0.77;;;23.00;50.90;;;;;;4896657;28;45604;-64
2022/06/07 05:02:32;;;;;;;1.23;0.95;;;23.00;50.90;;;;;;4893060;28;46096;-60
2022/06/07 05:04:57;;;;;;;2.80;0.90;;;23.00;50.90;;;;;;4892995;28;45324;-65
2022/06/07 05:07:23;;;;;;;1.67;1.17;;;23.00;50.90;;;;;;4899675;28;44718;-61
2022/06/07 05:09:48;;;;;;;2.03;0.90;;;23.00;50.80;;;;;;4898508;29;45387;-60
2022/06/07 05:12:14;;;;;;;1.00;0.70;;;23.00;50.80;;;;;;4899538;28;45320;-61
2022/06/07 05:14:41;;;;;;;2.35;0.80;;;23.00;50.80;;;;;;4896704;28;45425;-64
2022/06/07 05:17:06;;;;;;;1.85;0.98;;;23.00;50.80;;;;;;4898484;28;45469;-64
2022/06/07 05:19:33;;;;;;;2.60;1.20;;;23.00;50.70;;;;;;4901294;28;45397;-61
2022/06/07 05:22:02;;;;;;;1.50;0.70;;;23.00;50.70;;;;;;4900382;28;46000;-63
2022/06/07 05:24:28;;;;;;;0.68;0.68;;;23.00;50.70;;;;;;4895046;28;45541;-58
2022/06/07 05:26:55;;;;;;;2.05;0.85;;;23.00;50.80;;;;;;4895416;28;45508;-64
2022/06/07 05:29:48;;;;;;;3.70;0.88;;;23.00;50.70;;;;;;4915163;28;45624;-60
2022/06/07 05:32:14;;;;;;;4.05;0.85;;;22.90;50.60;;;;;;4893169;28;46290;-64
2022/06/07 05:34:40;;;;;;;1.73;1.08;;;22.90;50.60;;;;;;4898981;28;45144;-61
2022/06/07 05:37:05;;;;;;;2.15;1.00;;;23.00;50.70;;;;;;4893271;28;45173;-61
2022/06/07 05:39:31;;;;;;;1.52;0.90;;;22.90;50.60;;;;;;4895864;28;45431;-64
2022/06/07 05:41:57;;;;;;;1.20;1.00;;;22.90;50.60;;;;;;4894404;28;45532;-63
2022/06/07 05:44:23;;;;;;;2.20;0.82;;;23.00;50.60;;;;;;4895783;28;44844;-62
2022/06/07 05:46:49;;;;;;;2.03;1.15;;;23.00;50.70;;;;;;4896770;28;45208;-61
2022/06/07 05:49:15;;;;;;;2.63;0.90;;;23.00;50.60;;;;;;4894553;28;45509;-63
2022/06/07 05:51:41;;;;;;;1.75;0.98;;;22.90;50.50;;;;;;4896132;28;45997;-62
2022/06/07 05:54:07;;;;;;;1.15;0.80;;;23.00;50.50;;;;;;4899256;28;45501;-63
2022/06/07 05:56:32;;;;;;;1.73;0.93;;;23.00;50.40;;;;;;4893620;28;45326;-61
2022/06/07 05:58:58;;;;;;;1.83;0.80;;;23.00;50.50;;;;;;4900537;28;44948;-60
2022/06/07 06:01:25;;;;;;;1.13;0.70;;;22.90;50.40;;;;;;4898791;28;46206;-61
2022/06/07 06:03:50;;;;;;;3.53;0.90;;;23.00;50.30;;;;;;4894071;28;45424;-61
2022/06/07 06:06:16;;;;;;;3.13;0.80;;;23.00;50.30;;;;;;4896376;28;45300;-62
2022/06/07 06:11:27;;;;;;;2.92;0.80;;;23.10;49.80;;;;;;4896944;28;45296;-63
2022/06/07 06:13:52;;;;;;;1.52;0.80;;;23.20;49.40;;;;;;4895595;28;44631;-63
2022/06/07 06:16:19;;;;;;;0.88;0.60;;;23.20;49.20;;;;;;4889653;28;45306;-63
2022/06/07 06:18:45;;;;;;;1.45;0.70;;;23.30;49.20;;;;;;4892869;28;44995;-66
2022/06/07 06:21:11;;;;;;;3.38;0.52;;;23.30;49.30;;;;;;4897955;28;46447;-63
2022/06/07 06:23:37;;;;;;;1.95;0.65;;;23.30;49.20;;;;;;4901972;28;45544;-64
2022/06/07 06:26:07;;;;;;;1.27;0.80;;;23.30;49.20;;;;;;4896262;28;45485;-61
2022/06/07 06:28:33;;;;;;;1.10;0.77;;;23.40;49.20;;;;;;4894464;28;45409;-62
2022/06/07 06:31:01;;;;;;;1.40;0.70;;;23.40;49.20;;;;;;4898466;28;47119;-59
2022/06/07 06:33:27;;;;;;;1.00;0.80;;;23.40;49.10;;;;;;4949643;22;45243;-59
2022/06/07 06:35:53;;;;;;;2.30;0.80;;;23.50;49.00;;;;;;4952140;28;45130;-58
2022/06/07 06:38:20;;;;;;;0.50;0.50;;;23.50;49.00;;;;;;4956291;28;45523;-57
2022/06/07 06:40:46;;;;;;;0.70;0.70;;;23.50;48.90;;;;;;4958008;28;46000;-55
2022/06/07 06:43:12;;;;;;;0.80;0.70;;;23.50;48.90;;;;;;4951362;28;45001;-59
2022/06/07 06:45:39;;;;;;;1.55;0.60;;;23.60;48.90;;;;;;4939534;28;44807;-59
2022/06/07 06:48:06;;;;;;;1.10;0.70;;;23.60;48.80;;;;;;4954480;28;45532;-58
2022/06/07 06:50:32;;;;;;;0.68;0.68;;;23.60;48.80;;;;;;4934925;28;46064;-58
2022/06/07 06:52:57;;;;;;;0.60;0.50;;;23.60;48.80;;;;;;4937535;28;45503;-58
2022/06/07 06:55:23;;;;;;;0.60;0.60;;;23.70;48.80;;;;;;4935209;28;45239;-58
2022/06/07 06:57:49;;;;;;;1.05;0.57;;;23.70;48.70;;;;;;4938334;28;45184;-58
2022/06/07 07:00:15;;;;;;;4.00;0.70;;;23.70;48.70;;;;;;4957846;28;45363;-58
2022/06/07 07:02:41;;;;;;;1.07;0.63;;;23.70;48.60;;;;;;4951391;28;45514;-58
2022/06/07 07:05:07;;;;;;;0.95;0.60;;;23.80;48.60;;;;;;4951976;28;45343;-57
2022/06/07 07:07:33;;;;;;;2.47;0.60;;;23.80;48.60;;;;;;4954837;28;45133;-58
2022/06/07 07:09:58;;;;;;;1.38;0.50;;;23.80;48.50;;;;;;4951257;28;46197;-57
2022/06/07 07:12:24;;;;;;;0.82;0.70;;;23.80;48.50;;;;;;4944201;28;45446;-58
2022/06/07 07:14:49;;;;;;;2.58;0.57;;;23.90;48.50;;;;;;4953410;28;45398;-57
2022/06/07 07:17:15;;;;;;;1.45;0.70;;;23.90;48.40;;;;;;4950935;28;45075;-58
2022/06/07 07:19:40;;;;;;;1.23;0.80;;;23.90;48.30;;;;;;4950842;28;45924;-59
2022/06/07 07:22:06;;;;;;;1.80;0.57;;;24.00;48.30;;;;;;4952761;28;45259;-57
2022/06/07 07:24:32;;;;;;;0.68;0.63;;;24.00;48.20;;;;;;4952772;28;45220;-57
2022/06/07 07:26:58;;;;;;;0.82;0.57;;;24.00;48.20;;;;;;4952956;28;45167;-58
2022/06/07 07:29:24;;;;;;;1.00;0.70;;;24.00;48.10;;;;;;4953713;28;46195;-58
2022/06/07 07:31:50;;;;;;;1.08;0.68;;;24.10;48.20;;;;;;4948354;28;44981;-59
2022/06/07 07:34:16;;;;;;;0.82;0.50;;;24.10;48.20;;;;;;4949615;28;44987;-58
2022/06/07 07:36:47;;;;;;;2.28;0.60;;;24.10;48.10;;;;;;4955998;28;45245;-58
2022/06/07 07:39:13;;;;;;;1.23;0.70;;;24.10;48.10;;;;;;4949464;28;46195;-58
2022/06/07 07:41:39;;;;;;;2.67;0.82;;;24.20;48.00;;;;;;4936321;28;44734;-57
2022/06/07 07:44:06;;;;;;;1.35;0.80;;;24.20;48.00;;;;;;4949917;28;45417;-58
2022/06/07 07:46:34;;;;;;;0.60;0.50;;;24.20;47.90;;;;;;4951774;28;44758;-58
2022/06/07 07:48:59;;;;;;;0.63;0.50;;;24.20;47.80;;;;;;4955566;28;46024;-57
2022/06/07 07:51:34;;;;;;;1.10;0.57;;;24.30;48.00;;;;;;4955420;28;45272;-57
2022/06/07 07:54:01;;;;;;;4.20;0.90;;;24.30;47.90;;;;;;4956111;28;45249;-57
2022/06/07 07:56:27;;;;;;;0.88;0.60;;;24.30;47.80;;;;;;4939469;28;45466;-58
2022/06/07 07:58:54;;;;;;;1.25;0.60;;;24.30;47.80;;;;;;4948544;28;46026;-57
2022/06/07 08:01:23;;;;;;;2.38;0.40;;;24.40;47.80;;;;;;4950683;28;45588;-58
2022/06/07 08:03:49;;;;;;;0.70;0.50;;;24.40;47.80;;;;;;4953812;28;45650;-60
2022/06/07 08:06:17;;;;;;;0.90;0.60;;;24.40;47.80;;;;;;4951385;28;44922;-60
2022/06/07 08:08:43;;;;;;;0.60;0.50;;;24.40;47.70;;;;;;4951234;28;46047;-60
2022/06/07 08:11:08;;;;;;;1.25;0.80;;;24.40;47.70;;;;;;4953669;28;45258;-59
2022/06/07 08:13:34;;;;;;;0.85;0.45;;;24.50;47.70;;;;;;4959352;28;45880;-59
2022/06/07 08:16:00;;;;;;;0.45;0.45;;;24.50;47.60;;;;;;4951245;28;44711;-59
2022/06/07 08:18:26;;;;;;;0.80;0.70;;;24.50;47.60;;;;;;4953333;28;45964;-58
2022/06/07 08:20:59;;;;;;;0.77;0.57;;;24.60;47.60;;;;;;4951283;28;45223;-60
2022/06/07 08:23:25;;;;;;;2.28;0.57;;;24.60;47.40;;;;;;4952066;28;45445;-59
2022/06/07 08:25:50;;;;;;;0.85;0.70;;;24.60;47.40;;;;;;4951850;28;45009;-57
2022/06/07 08:28:16;;;;;;;0.57;0.57;;;24.70;47.30;;;;;;4954524;28;45365;-58
2022/06/07 08:30:45;;;;;;;0.60;0.55;;;24.70;47.30;;;;;;4948822;28;45485;-59
2022/06/07 08:38:40;;;;;;;1.10;0.63;;;24.80;47.20;;;;;;4958222;28;46162;-58
2022/06/07 08:41:06;;;;;;;0.45;0.40;;;24.80;47.10;;;;;;4954791;28;45327;-58
2022/06/07 08:43:31;;;;;;;0.98;0.50;;;24.80;47.10;;;;;;4957307;28;45259;-59
2022/06/07 08:45:57;;;;;;;0.77;0.70;;;24.90;47.10;;;;;;4957805;28;45086;-59
2022/06/07 08:48:32;;;;;;;3.53;0.50;;;24.80;47.00;;;;;;4943772;28;46170;-58
2022/06/07 08:51:12;;;;;;;0.40;0.40;;;24.90;46.90;;;;;;4939140;28;45597;-59
2022/06/07 08:53:40;;;;;;;0.82;0.52;;;24.90;46.80;;;;;;4941091;28;45025;-58
2022/06/07 08:56:11;;;;;;;0.85;0.60;;;24.90;47.00;;;;;;4920672;28;45525;-59
2022/06/07 08:58:39;;;;;;;0.75;0.70;;;24.90;46.90;;;;;;4919809;28;45242;-59
2022/06/07 09:01:42;;;;;;;0.65;0.60;;;25.00;46.90;;;;;;4955345;28;45339;-58
2022/06/07 09:04:17;;;;;;;0.77;0.77;;;25.00;46.60;;;;;;4950697;28;44778;-59
2022/06/07 09:06:45;;;;;;;0.95;0.50;;;25.00;46.60;;;;;;4939748;28;45336;-59
2022/06/07 09:09:11;;;;;;;1.70;0.73;;;25.00;46.60;;;;;;4956879;28;46086;-61
2022/06/07 09:12:14;;;;;;;0.50;0.50;;;25.10;46.70;;;;;;4939201;28;45338;-60
2022/06/07 09:15:10;;;;;;;0.60;0.50;;;25.10;46.50;;;;;;4943262;28;45003;-63
2022/06/07 09:17:37;;;;;;;0.90;0.57;;;25.10;46.40;;;;;;4948828;28;46158;-59
2022/06/07 09:20:10;;;;;;;0.80;0.68;;;25.10;46.50;;;;;;4955911;28;45249;-60
2022/06/07 09:22:48;;;;;;;0.50;0.40;;;25.20;46.50;;;;;;4921387;28;45615;-58
2022/06/07 09:25:16;;;;;;;1.10;0.98;;;25.20;46.40;;;;;;4953604;28;45426;-58
2022/06/07 09:27:45;;;;;;;0.73;0.50;;;25.20;46.40;;;;;;4954965;28;45249;-59
2022/06/07 09:30:17;;;;;;;0.68;0.68;;;25.20;46.30;;;;;;4954004;28;45620;-59
2022/06/07 09:32:43;;;;;;;0.75;0.70;;;25.30;46.20;;;;;;4952383;28;45591;-59
2022/06/07 09:35:15;;;;;;;1.13;0.55;;;25.30;46.30;;;;;;4953006;28;45104;-59
2022/06/07 09:37:56;;;;;;;0.80;0.52;;;25.30;46.20;;;;;;4938213;28;45252;-58
2022/06/07 09:40:41;;;;;;;0.60;0.60;;;25.30;46.10;;;;;;4933146;28;45250;-57
2022/06/07 09:43:13;;;;;;;1.98;0.68;;;25.30;46.10;;;;;;4942607;28;45443;-58
2022/06/07 09:45:45;;;;;;;3.17;0.70;;;25.40;46.10;;;;;;4940988;28;45286;-59
2022/06/07 09:48:30;;;;;;;0.68;0.57;;;25.40;46.10;;;;;;4951803;28;45552;-59
2022/06/07 09:51:00;;;;;;;0.50;0.50;;;25.40;45.80;;;;;;4958289;28;46135;-59
2022/06/07 09:53:32;;;;;;;0.95;0.73;;;25.40;46.00;;;;;;4953733;28;44772;-59
2022/06/07 09:56:13;;;;;;;0.60;0.60;;;25.40;46.10;;;;;;4940346;28;45388;-59
2022/06/07 09:58:42;;;;;;;3.17;0.60;;;25.50;46.10;;;;;;4952147;28;45352;-61
2022/06/07 10:01:20;;;;;;;0.65;0.50;;;25.50;46.10;;;;;;4956658;28;46364;-61
2022/06/07 10:03:50;;;;;;;1.52;0.68;;;25.50;46.00;;;;;;4939232;28;45029;-59
2022/06/07 10:06:30;;;;;;;0.52;0.52;;;25.50;46.20;;;;;;4891370;28;44945;-59
2022/06/07 10:08:55;;;;;;;1.40;0.75;;;25.50;46.00;;;;;;4941402;28;46116;-61
2022/06/07 10:11:44;;;;;;;0.50;0.50;;;25.50;46.20;;;;;;4942115;28;45294;-60
2022/06/07 10:14:22;;;;;;;0.52;0.43;;;25.50;46.00;;;;;;4957898;28;45287;-60
2022/06/07 10:17:26;;;;;;;0.77;0.50;;;25.50;46.00;;;;;;4950566;28;46343;-60
2022/06/07 10:20:00;;;;;;;1.00;0.40;;;25.60;45.90;;;;;;4939201;28;45752;-60
2022/06/07 10:22:32;;;;;;;1.00;0.60;;;25.60;45.90;;;;;;4935772;28;46200;-60
2022/06/07 10:25:17;;;;;;;0.50;0.50;;;25.60;45.90;;;;;;4942849;28;45490;-60
2022/06/07 10:28:05;;;;;;;0.85;0.43;;;25.60;45.80;;;;;;4944646;28;45216;-60
2022/06/07 10:30:38;;;;;;;1.55;0.70;;;25.60;45.90;;;;;;4959626;28;45368;-59
2022/06/07 10:33:34;;;;;;;0.60;0.60;;;25.60;45.80;;;;;;4953984;28;45860;-59
2022/06/07 10:36:20;;;;;;;0.85;0.50;;;25.60;45.70;;;;;;4944998;28;45281;-59
2022/06/07 10:39:01;;;;;;;0.60;0.57;;;25.60;45.70;;;;;;4932247;28;45050;-59
2022/06/07 10:41:56;;;;;;;0.68;0.60;;;25.60;45.90;;;;;;4941978;28;44745;-60
2022/06/07 10:44:27;;;;;;;1.15;0.50;;;25.70;45.50;;;;;;4941667;28;46093;-60
2022/06/07 10:46:53;;;;;;;0.45;0.40;;;25.70;45.60;;;;;;4957214;28;45385;-60
2022/06/07 10:49:48;;;;;;;1.33;0.60;;;25.60;45.70;;;;;;4940638;28;45513;-60
2022/06/07 10:52:25;;;;;;;0.57;0.50;;;25.70;45.50;;;;;;4954778;28;44813;-61
2022/06/07 10:55:09;;;;;;;0.40;0.40;;;25.70;45.50;;;;;;4959278;28;45986;-61
2022/06/07 10:57:53;;;;;;;3.13;0.47;;;25.80;45.40;;;;;;4937632;28;44811;-58
2022/06/07 11:00:19;;;;;;;0.90;0.52;;;25.80;45.60;;;;;;4957484;28;45183;-59
2022/06/07 11:03:19;;;;;;;1.77;0.50;;;25.70;45.60;;;;;;4956800;28;44824;-59
2022/06/07 11:11:24;;;;;;;0.80;0.50;;;25.80;45.60;;;;;;4927417;28;45270;-59
2022/06/07 11:14:02;;;;;;;0.65;0.40;;;25.80;45.70;;;;;;4928222;28;45361;-60
2022/06/07 11:16:46;;;;;;;1.15;0.63;;;25.80;45.40;;;;;;4939579;28;47240;-59
2022/06/07 11:19:12;;;;;;;0.30;0.30;;;25.80;45.60;;;;;;4953597;28;45602;-59
2022/06/07 11:21:42;;;;;;;0.47;0.40;;;25.80;45.60;;;;;;4943734;28;45302;-59
2022/06/07 11:24:16;;;;;;;0.88;0.50;;;25.80;45.50;;;;;;4937585;28;45141;-59
2022/06/07 11:26:50;;;;;;;0.77;0.40;;;25.80;45.50;;;;;;4955746;28;45949;-58
2022/06/07 11:29:24;;;;;;;3.45;0.57;;;25.80;45.30;;;;;;4952951;28;44678;-60
2022/06/07 11:31:50;;;;;;;1.10;0.60;;;25.90;45.50;;;;;;4950487;28;45238;-60
2022/06/07 11:34:32;;;;;;;0.60;0.60;;;25.90;45.50;;;;;;4937112;28;45217;-61
2022/06/07 11:37:02;;;;;;;0.68;0.50;;;25.90;45.50;;;;;;4939565;28;45959;-60
2022/06/07 11:39:52;;;;;;;1.10;0.47;;;25.90;45.40;;;;;;4955893;28;45301;-59
2022/06/07 11:42:17;;;;;;;2.95;0.50;;;25.90;45.40;;;;;;4933856;28;44680;-59
2022/06/07 11:44:46;;;;;;;1.05;0.60;;;25.90;45.50;;;;;;4954533;28;45467;-60
2022/06/07 11:47:14;;;;;;;0.85;0.65;;;25.90;45.50;;;;;;4954246;28;45258;-59
2022/06/07 11:50:00;;;;;;;0.57;0.50;;;25.90;45.40;;;;;;4953174;28;45680;-60
2022/06/07 11:52:34;;;;;;;0.47;0.47;;;25.90;45.40;;;;;;4936145;28;45266;-60
2022/06/07 11:55:12;;;;;;;0.60;0.40;;;25.90;45.20;;;;;;4936954;28;45559;-61
2022/06/07 11:57:58;;;;;;;0.70;0.70;;;26.00;45.20;;;;;;4951889;28;45202;-59
2022/06/07 12:00:30;;;;;;;0.75;0.47;;;26.00;45.30;;;;;;4954762;28;45243;-61
2022/06/07 12:02:57;;;;;;;0.98;0.47;;;26.00;45.20;;;;;;4953259;28;45367;-60
2022/06/07 12:05:32;;;;;;;1.45;0.68;;;26.00;45.40;;;;;;4954223;28;45875;-61
2022/06/07 12:08:21;;;;;;;1.02;0.50;;;26.00;45.30;;;;;;4933841;28;45545;-61
2022/06/07 12:11:22;;;;;;;2.47;0.40;;;26.00;45.20;;;;;;4908525;28;45255;-60
2022/06/07 12:14:18;;;;;;;0.35;0.30;;;26.00;45.00;;;;;;4952369;28;44653;-60
2022/06/07 12:16:51;;;;;;;0.73;0.40;;;26.00;44.90;;;;;;4954193;28;46583;-60
2022/06/07 12:19:35;;;;;;;1.40;0.40;;;26.00;45.10;;;;;;4953821;28;45205;-61
2022/06/07 12:22:04;;;;;;;0.80;0.50;;;26.00;45.10;;;;;;4965537;28;45736;-60
2022/06/07 12:24:39;;;;;;;1.08;0.70;;;26.00;45.10;;;;;;4955806;28;45250;-60
2022/06/07 12:27:35;;;;;;;0.88;0.50;;;26.10;45.00;;;;;;4956399;28;44741;-60
2022/06/07 12:30:21;;;;;;;0.63;0.60;;;26.10;44.80;;;;;;4950691;28;45235;-60
2022/06/07 12:32:50;;;;;;;0.73;0.47;;;26.10;44.80;;;;;;4909989;28;44686;-59
2022/06/07 12:35:21;;;;;;;1.77;0.52;;;26.10;45.10;;;;;;4938984;28;45270;-60
2022/06/07 12:38:00;;;;;;;0.40;0.40;;;26.10;45.00;;;;;;4953772;28;45374;-60
2022/06/07 12:40:45;;;;;;;0.50;0.50;;;26.10;44.80;;;;;;4938549;28;45325;-60
2022/06/07 12:43:20;;;;;;;0.45;0.45;;;26.10;45.00;;;;;;4959351;28;46232;-59
2022/06/07 12:46:03;;;;;;;1.13;0.50;;;26.10;44.70;;;;;;4954626;28;45339;-59
2022/06/07 12:48:38;;;;;;;1.20;0.50;;;26.20;44.80;;;;;;4956602;28;45146;-59
2022/06/07 12:51:24;;;;;;;0.70;0.50;;;26.20;44.80;;;;;;4933709;28;45821;-60
2022/06/07 12:53:58;;;;;;;0.50;0.50;;;26.20;44.70;;;;;;4952992;28;45228;-58
2022/06/07 12:56:28;;;;;;;0.40;0.40;;;26.10;44.80;;;;;;4942334;28;45233;-58
2022/06/07 12:58:57;;;;;;;0.50;0.50;;;26.10;45.00;;;;;;4923034;28;44784;-59
2022/06/07 13:01:39;;;;;;;0.57;0.50;;;26.10;45.00;;;;;;4935399;28;45397;-60
2022/06/07 13:04:13;;;;;;;0.30;0.30;;;26.10;44.90;;;;;;4956891;28;45013;-59
2022/06/07 13:06:39;;;;;;;0.85;0.40;;;26.20;44.90;;;;;;4943390;28;45229;-59
2022/06/07 13:09:17;;;;;;;0.32;0.32;;;26.10;44.90;;;;;;4939788;28;45166;-60
2022/06/07 13:11:43;;;;;;;0.60;0.40;;;26.20;45.00;;;;;;4940595;28;46117;-59
2022/06/07 13:14:11;;;;;;;0.68;0.60;;;26.20;45.00;;;;;;4956741;28;45124;-60
2022/06/07 13:16:42;;;;;;;0.50;0.50;;;26.20;44.90;;;;;;4936881;28;45304;-59
2022/06/07 13:19:13;;;;;;;0.52;0.52;;;26.20;44.90;;;;;;4937929;28;45260;-59
2022/06/07 13:21:48;;;;;;;0.50;0.40;;;26.10;44.80;;;;;;4952340;28;46231;-64
2022/06/07 13:24:41;;;;;;;0.30;0.30;;;26.20;44.80;;;;;;4939063;28;45619;-60
2022/06/07 13:27:38;;;;;;;0.65;0.52;;;26.20;44.60;;;;;;4937050;28;45540;-59
2022/06/07 13:30:12;;;;;;;1.10;0.45;;;26.20;44.60;;;;;;4936580;28;45426;-59
2022/06/07 13:32:38;;;;;;;0.50;0.50;;;26.20;44.80;;;;;;4943443;28;45294;-58
2022/06/07 13:35:20;;;;;;;0.90;0.50;;;26.20;44.90;;;;;;4958284;28;45277;-58
2022/06/07 13:38:01;;;;;;;1.00;0.30;;;26.20;44.70;;;;;;4943987;28;45403;-60
2022/06/07 13:40:29;;;;;;;0.28;0.28;;;26.20;44.70;;;;;;4936391;28;45209;-61
2022/06/07 13:43:02;;;;;;;1.30;0.40;;;26.20;44.90;;;;;;4957387;28;45986;-59
2022/06/07 13:45:28;;;;;;;0.70;0.45;;;26.20;45.50;;;;;;4939339;28;45253;-58
2022/06/07 13:47:59;;;;;;;0.50;0.50;;;26.20;44.90;;;;;;4959256;28;45521;-59
2022/06/07 13:53:25;;;;;;;0.40;0.40;;;26.20;45.00;;;;;;4943458;28;45400;-60
2022/06/07 13:56:18;;;;;;;1.45;0.90;;;26.30;44.80;;;;;;4957994;28;44608;-60
2022/06/07 13:58:49;;;;;;;0.30;0.30;;;26.30;44.70;;;;;;4952194;28;45496;-60
2022/06/07 14:01:22;;;;;;;0.63;0.40;;;26.30;44.90;;;;;;4953922;28;44821;-60
2022/06/07 14:03:56;;;;;;;1.95;0.52;;;26.20;44.90;;;;;;4943142;28;45313;-59
2022/06/07 14:06:25;;;;;;;0.63;0.38;;;26.30;44.90;;;;;;4957351;28;45318;-60
2022/06/07 14:08:52;;;;;;;0.40;0.32;;;26.30;44.90;;;;;;4956554;28;45629;-59
2022/06/07 14:11:18;;;;;;;0.45;0.43;;;26.30;44.90;;;;;;4943175;28;45262;-59
2022/06/07 14:13:45;;;;;;;1.63;0.50;;;26.30;44.90;;;;;;4942440;28;45258;-59
2022/06/07 14:16:33;;;;;;;0.70;0.40;;;26.30;45.00;;;;;;4956703;28;45471;-60
2022/06/07 14:19:03;;;;;;;0.40;0.40;;;26.30;44.80;;;;;;4922646;28;45252;-60
2022/06/07 14:21:30;;;;;;;0.75;0.38;;;26.30;44.80;;;;;;4939022;28;44780;-59
2022/06/07 14:23:57;;;;;;;0.52;0.50;;;26.30;45.40;;;;;;4945557;28;45209;-63
2022/06/07 14:26:23;;;;;;;0.40;0.40;;;26.30;44.80;;;;;;4957004;28;45024;-60
2022/06/07 14:28:50;;;;;;;0.55;0.52;;;26.30;44.80;;;;;;4954816;28;45244;-59
2022/06/07 14:31:22;;;;;;;0.75;0.52;;;26.30;44.70;;;;;;4952313;28;45156;-59
2022/06/07 14:33:48;;;;;;;0.50;0.50;;;26.40;44.80;;;;;;4939007;28;45698;-58
2022/06/07 14:36:17;;;;;;;0.73;0.50;;;26.40;44.70;;;;;;4939284;28;46350;-58
2022/06/07 14:38:43;;;;;;;1.20;0.40;;;26.40;44.70;;;;;;4936621;28;45425;-59
2022/06/07 14:41:09;;;;;;;5.55;0.68;;;26.40;44.70;;;;;;4939278;28;45366;-59
2022/06/07 14:43:34;;;;;;;0.55;0.50;;;26.40;44.70;;;;;;4937372;28;45448;-58
2022/06/07 14:46:12;;;;;;;0.55;0.40;;;26.40;44.60;;;;;;4933381;28;44660;-57
2022/06/07 14:48:42;;;;;;;0.98;0.50;;;26.40;44.50;;;;;;4936544;28;44741;-57
2022/06/07 14:51:22;;;;;;;2.65;0.40;;;26.50;44.50;;;;;;4940107;28;45259;-59
2022/06/07 14:53:49;;;;;;;3.67;0.60;;;26.50;44.30;;;;;;4935642;28;45902;-58
2022/06/07 14:56:19;;;;;;;1.13;0.50;;;26.50;44.50;;;;;;4935790;28;45460;-55
2022/06/07 14:58:45;;;;;;;0.85;0.47;;;26.50;44.30;;;;;;4907232;28;45259;-59
2022/06/07 15:01:35;;;;;;;0.70;0.40;;;26.50;44.40;;;;;;4932485;28;45203;-61
2022/06/07 15:04:03;;;;;;;0.57;0.40;;;26.50;44.30;;;;;;4933194;28;45972;-61
2022/06/07 15:06:34;;;;;;;1.23;0.63;;;26.50;44.40;;;;;;4938073;28;44848;-62
2022/06/07 15:09:00;;;;;;;0.30;0.30;;;26.50;44.00;;;;;;4935557;28;45306;-61
2022/06/07 15:11:32;;;;;;;1.05;0.35;;;26.50;44.10;;;;;;4939321;28;46120;-62
2022/06/07 15:13:58;;;;;;;0.75;0.43;;;26.50;44.10;;;;;;4931280;28;45959;-62
2022/06/07 15:16:24;;;;;;;0.40;0.40;;;26.50;44.20;;;;;;4936146;28;45460;-62
2022/06/07 15:18:50;;;;;;;1.75;0.70;;;26.50;44.20;;;;;;4932621;28;45374;-61
2022/06/07 15:21:17;;;;;;;0.40;0.32;;;26.50;44.20;;;;;;4903436;28;45658;-62
2022/06/07 15:23:43;;;;;;;0.30;0.30;;;26.50;44.20;;;;;;4932714;28;46181;-62
2022/06/07 15:26:17;;;;;;;0.52;0.40;;;26.50;44.20;;;;;;4934266;28;45371;-62
2022/06/07 15:28:43;;;;;;;0.52;0.47;;;26.50;44.20;;;;;;4936106;28;45318;-62
2022/06/07 15:31:08;;;;;;;0.47;0.45;;;26.50;44.30;;;;;;4935073;28;45423;-62
2022/06/07 15:33:34;;;;;;;0.50;0.38;;;26.50;44.30;;;;;;4946328;28;46439;-62
2022/06/07 15:35:59;;;;;;;0.47;0.40;;;26.50;44.30;;;;;;4957748;28;44687;-63
2022/06/07 15:38:26;;;;;;;0.63;0.55;;;26.50;44.30;;;;;;4942134;28;45215;-63
2022/06/07 15:40:52;;;;;;;0.38;0.38;;;26.50;44.30;;;;;;4936864;28;45306;-60
2022/06/07 15:43:17;;;;;;;0.35;0.35;;;26.50;44.30;;;;;;4941184;28;46364;-62
2022/06/07 15:45:48;;;;;;;0.43;0.43;;;26.50;44.20;;;;;;4929432;28;45432;-61
2022/06/07 15:48:19;;;;;;;0.40;0.40;;;26.50;44.20;;;;;;4949997;28;45944;-63
2022/06/07 15:50:55;;;;;;;0.50;0.43;;;26.50;44.20;;;;;;4926271;28;45524;-61
2022/06/07 15:53:31;;;;;;;0.40;0.40;;;26.50;44.10;;;;;;4948638;28;49026;-62
2022/06/07 15:55:58;;;;;;;0.65;0.57;;;26.50;44.10;;;;;;4933197;28;45576;-64
2022/06/07 16:01:08;;;;;;;2.25;0.50;;;26.50;44.10;;;;;;4945748;28;45257;-62
2022/06/07 16:03:36;;;;;;;0.55;0.50;;;26.50;44.10;;;;;;4929560;28;45506;-63
2022/06/07 16:06:04;;;;;;;0.50;0.40;;;26.50;44.10;;;;;;4930612;28;45245;-62
2022/06/07 16:08:30;;;;;;;0.68;0.40;;;26.50;44.10;;;;;;4945916;28;45859;-62
2022/06/07 16:10:56;;;;;;;0.60;0.40;;;26.50;44.00;;;;;;4928344;28;45302;-63
2022/06/07 16:13:21;;;;;;;1.00;0.50;;;26.50;44.10;;;;;;4912117;28;47057;-63
2022/06/07 16:15:48;;;;;;;1.65;0.60;;;26.50;44.00;;;;;;4930862;28;45317;-62
2022/06/07 16:18:15;;;;;;;0.68;0.50;;;26.60;44.10;;;;;;4930455;28;45732;-63
2022/06/07 16:20:41;;;;;;;0.40;0.30;;;26.60;44.00;;;;;;4929056;28;45725;-63
2022/06/07 16:23:07;;;;;;;0.50;0.43;;;26.60;44.00;;;;;;4927141;28;45162;-64
2022/06/07 16:25:33;;;;;;;2.28;0.40;;;26.60;44.00;;;;;;4930126;28;45615;-62